Latest Coastal Weather Observations for Bellambi

IDN60701

Issued at 11:55 am EST Sunday 21 September 2014 (issued every 10 minutes, with the page automatically refreshed every 10 minutes)

About coastal observations | Map of coastal stations | Coastal observations for NSW | Marine services | Other Formats
Station Details ID: 068228 Name: BELLAMBI AWS Lat: -34.37 Lon: 150.93 Height: 10.0 m
Data from the previous 72 hours. | See also: Recent months at Bellambi
Date/Time
EST
Temp

°C
Wind Pressure Rain
since 9am
mm
Weather Cloud Vis
km
Sea
Height
m
Swell
Dir
 
Speed
knots
Gust
knots
hPa Trend Height
m
Period
s
Dir
21/11:30am 16.7 SSE 10 12 - - 0.0 - Partly cloudy - - - - -
21/11:00am 16.5 SSE 11 13 - - 0.0 - Partly cloudy - - - - -
21/10:30am 16.7 S 11 14 - - 0.0 - Partly cloudy - - - - -
21/10:00am 16.2 S 13 16 - - 0.0 - - - - - - -
21/09:30am 15.8 S 15 18 - - 0.0 - - - - - - -
21/09:00am 15.8 S 13 16 - - 0.0 - - - - - - -
21/08:30am 15.3 SSW 11 14 - - 0.0 - - - - - - -
21/08:00am 15.2 SSW 11 14 - - 0.0 - - - - - - -
21/07:30am 14.4 SW 9 13 - - 0.0 - - - - - - -
21/07:00am 13.4 SW 7 10 - - 0.0 - - - - - - -
21/06:30am 12.1 WSW 7 9 - - 0.0 - - - - - - -
21/06:00am 11.5 WSW 8 10 - - 0.0 - - - - - - -
21/05:30am 11.5 W 6 7 - - 0.0 - - - - - - -
21/05:00am 11.7 WSW 6 7 - - 0.0 - - - - - - -
21/04:30am 11.9 WSW 7 8 - - 0.0 - - - - - - -
21/04:00am 12.1 WSW 8 10 - - 0.0 - - - - - - -
21/03:30am 12.2 WSW 6 8 - - 0.0 - - - - - - -
21/03:00am 12.6 SW 8 10 - - 0.0 - - - - - - -
21/02:30am 12.8 WSW 8 10 - - 0.0 - - - - - - -
21/02:00am 12.8 WSW 7 9 - - 0.0 - - - - - - -
21/01:30am 12.7 WSW 6 9 - - 0.0 - - - - - - -
21/01:00am 12.7 W 6 8 - - 0.0 - - - - - - -
21/12:30am 12.8 WSW 6 8 - - 0.0 - - - - - - -
21/12:00am 13.2 WSW 8 10 - - 0.0 - - - - - - -
 
Date/Time
EST
Temp

°C
Wind Pressure Rain
since 9am
mm
Weather Cloud Vis
km
Sea
Height
m
Swell
Dir
 
Speed
knots
Gust
knots
hPa Trend Height
m
Period
s
Dir
20/11:30pm 13.3 WSW 8 10 - - 0.0 - - - - - - -
20/11:00pm 13.4 WSW 8 10 - - 0.0 - - - - - - -
20/10:30pm 13.6 WSW 7 11 - - 0.0 - - - - - - -
20/10:00pm 13.7 SW 8 11 - - 0.0 - - - - - - -
20/09:30pm 13.7 WSW 8 10 - - 0.0 - - - - - - -
20/09:00pm 13.7 WSW 8 9 - - 0.0 - - - - - - -
20/08:30pm 14.0 WSW 7 9 - - 0.0 - Partly cloudy - - - - -
20/08:00pm 15.7 S 13 16 - - 0.0 - - - - - - -
20/07:30pm 15.6 S 13 16 - - 0.0 - Partly cloudy - - - - -
20/07:00pm 15.7 S 13 17 - - 0.0 - Partly cloudy - - - - -
20/06:30pm 15.5 SSE 12 15 - - 0.0 - - - - - - -
20/06:00pm 15.4 S 12 15 - - 0.0 - - - - - - -
20/05:30pm 15.4 S 13 17 - - 0.0 - - - - - - -
20/05:00pm 15.5 S 14 18 - - 0.0 - - - - - - -
20/04:30pm 15.6 S 14 18 - - 0.0 - - - - - - -
20/04:00pm 15.8 S 15 18 - - 0.0 - - - - - - -
20/03:30pm 16.0 S 14 18 - - 0.0 - - - - - - -
20/03:00pm 16.1 S 14 17 - - 0.0 - - - - - - -
20/02:30pm 16.0 S 16 20 - - 0.0 - - - - - - -
20/02:00pm 16.2 SSE 15 21 - - 0.0 - - - - - - -
20/01:30pm 16.3 S 15 19 - - 0.0 - - - - - - -
20/01:00pm 16.1 SSE 15 21 - - 0.0 - - - - - - -
20/12:30pm 16.2 S 15 19 - - 0.0 - - - - - - -
20/12:00pm 16.7 SSE 13 17 - - 0.0 - - - - - - -
20/11:30am 16.3 S 12 15 - - 0.0 - - - - - - -
20/11:00am 16.0 S 15 18 - - 0.0 - - - - - - -
20/10:30am 15.6 S 17 20 - - 0.0 - - - - - - -
20/10:00am 15.3 S 18 22 - - 0.0 - - - - - - -
20/09:30am 15.3 S 18 23 - - 0.0 - - - - - - -
20/09:00am 15.3 S 18 21 - - 0.0 - - - - - - -
20/08:30am 15.5 SSW 11 13 - - 0.0 - - - - - - -
20/08:00am 14.7 SW 10 14 - - 0.0 - - - - - - -
20/07:30am 13.7 SSW 11 13 - - 0.0 - - - - - - -
20/07:00am 11.7 SW 4 5 - - 0.0 - - - - - - -
20/06:30am 9.3 WSW 4 5 - - 0.0 - - - - - - -
20/06:00am 8.4 SW 5 6 - - 0.0 - - - - - - -
20/05:30am 9.5 W 4 5 - - 0.0 - - - - - - -
20/05:00am 10.0 W 6 6 - - 0.0 - - - - - - -
20/04:30am 10.3 WSW 7 8 - - 0.0 - - - - - - -
20/04:00am 10.4 SW 5 6 - - 0.0 - - - - - - -
20/03:30am 10.3 SSW 3 5 - - 0.0 - - - - - - -
20/03:00am 11.8 NW 6 8 - - 0.0 - - - - - - -
20/02:30am 11.4 NNW 6 9 - - 0.0 - - - - - - -
20/02:00am 11.2 NW 3 7 - - 0.0 - - - - - - -
20/01:30am 11.1 W 1 6 - - 0.0 - - - - - - -
20/01:00am 11.4 NW 7 10 - - 0.0 - - - - - - -
20/12:30am 11.1 NW 9 11 - - 0.0 - - - - - - -
20/12:00am 10.4 WNW 7 9 - - 0.0 - - - - - - -
 
Date/Time
EST
Temp

°C
Wind Pressure Rain
since 9am
mm
Weather Cloud Vis
km
Sea
Height
m
Swell
Dir
 
Speed
knots
Gust
knots
hPa Trend Height
m
Period
s
Dir
19/11:30pm 10.3 WNW 6 7 - - 0.0 - - - - - - -
19/11:00pm 10.5 WNW 5 7 - - 0.0 - - - - - - -
19/10:30pm 10.3 WNW 6 7 - - 0.0 - - - - - - -
19/10:00pm 10.4 WNW 5 6 - - 0.0 - - - - - - -
19/09:30pm 11.2 W 6 7 - - 0.0 - - - - - - -
19/09:00pm 11.1 W 6 7 - - 0.0 - - - - - - -
19/08:30pm 11.6 W 7 8 - - 0.0 - - - - - - -
19/08:00pm 11.6 W 7 8 - - 0.0 - - - - - - -
19/07:30pm 11.9 W 5 6 - - 0.0 - - - - - - -
19/07:00pm 12.7 SW 2 5 - - 0.0 - - - - - - -
19/06:30pm 14.0 SE 4 6 - - 0.0 - - - - - - -
19/06:00pm 14.1 SE 6 8 - - 0.0 - - - - - - -
19/05:30pm 14.5 SE 6 9 - - 0.0 - - - - - - -
19/05:00pm 14.9 SE 7 11 - - 0.0 - - - - - - -
19/04:30pm 15.1 SE 8 10 - - 0.0 - - - - - - -
19/04:00pm 15.4 SE 7 9 - - 0.0 - - - - - - -
19/03:30pm 15.8 ESE 7 9 - - 0.0 - - - - - - -
19/03:00pm 15.7 SE 7 9 - - 0.0 - - - - - - -
19/02:30pm 15.9 ESE 6 8 - - 0.0 - - - - - - -
19/02:00pm 15.9 SE 7 9 - - 0.0 - - - - - - -
19/01:30pm 15.9 ESE 7 8 - - 0.0 - - - - - - -
19/01:00pm 16.5 SE 7 9 - - 0.0 - - - - - - -
19/12:30pm 16.1 ESE 7 8 - - 0.0 - - - - - - -
19/12:00pm 16.3 ESE 7 9 - - 0.0 - - - - - - -
19/11:30am 16.1 ESE 8 10 - - 0.0 - - - - - - -
19/11:00am 15.8 SE 11 13 - - 0.0 - - - - - - -
19/10:30am 15.9 SE 10 11 - - 0.0 - - - - - - -
19/10:00am 16.4 SE 8 10 - - 0.0 - - - - - - -
19/09:30am 16.6 W 5 9 - - 0.0 - - - - - - -
19/09:00am 15.7 WSW 4 6 - - 0.0 - - - - - - -
19/08:30am 14.8 WSW 7 10 - - 0.0 - - - - - - -
19/08:00am 14.4 NW 6 8 - - 0.0 - - - - - - -
19/07:30am 13.1 WNW 5 6 - - 0.0 - - - - - - -
19/07:00am 11.3 WNW 5 6 - - 0.0 - - - - - - -
19/06:30am 9.4 WNW 6 7 - - 0.0 - - - - - - -
19/06:00am 8.9 WNW 7 8 - - 0.0 - - - - - - -
19/05:30am 8.6 WNW 6 8 - - 0.0 - - - - - - -
19/05:00am 8.7 WNW 6 7 - - 0.0 - - - - - - -
19/04:30am 8.9 WNW 4 6 - - 0.0 - - - - - - -
19/04:00am 8.8 WNW 3 4 - - 0.0 - - - - - - -
19/03:30am 9.4 CALM 0 2 - - 0.0 - - - - - - -
19/03:00am 9.4 NW 4 5 - - 0.0 - - - - - - -
19/02:30am 9.9 NNW 2 5 - - 0.0 - - - - - - -
19/02:00am 10.5 WNW 2 5 - - 0.0 - - - - - - -
19/01:30am 10.6 W 4 6 - - 0.0 - - - - - - -
19/01:00am 10.5 WNW 6 7 - - 0.0 - - - - - - -
19/12:30am 11.2 W 7 9 - - 0.0 - - - - - - -
19/12:00am 10.5 W 6 9 - - 0.0 - - - - - - -
 
Date/Time
EST
Temp

°C
Wind Pressure Rain
since 9am
mm
Weather Cloud Vis
km
Sea
Height
m
Swell
Dir
 
Speed
knots
Gust
knots
hPa Trend Height
m
Period
s
Dir
18/11:30pm 10.9 WNW 7 9 - - 0.0 - - - - - - -
18/11:00pm 11.1 WNW 7 9 - - 0.0 - - - - - - -
18/10:30pm 11.2 WNW 7 8 - - 0.0 - - - - - - -
18/10:00pm 11.5 WNW 7 9 - - 0.0 - - - - - - -
18/09:30pm 11.9 WNW 7 9 - - 0.0 - - - - - - -
18/09:00pm 11.9 WNW 6 7 - - 0.0 - - - - - - -
18/08:30pm 12.3 WNW 5 6 - - 0.0 - Partly cloudy - - - - -
18/08:00pm 12.4 W 7 8 - - 0.0 - Cloudy - - - - -
18/07:30pm 12.2 W 6 7 - - 0.0 - Partly cloudy - - - - -
18/07:00pm 12.2 W 5 7 - - 0.0 - - - - - - -
18/06:30pm 13.1 W 5 6 - - 0.0 - - - - - - -
18/06:00pm 14.4 S 6 8 - - 0.0 - - - - - - -
18/05:30pm 14.8 S 5 8 - - 0.0 - - - - - - -
18/05:00pm 15.3 S 6 7 - - 0.0 - Partly cloudy - - - - -
18/04:30pm 15.4 ESE 7 9 - - 0.0 - Partly cloudy - - - - -
18/04:00pm 15.4 SE 10 12 - - 0.0 - - - - - - -
18/03:30pm 15.5 SE 11 13 - - 0.0 - Partly cloudy - - - - -
18/03:00pm 15.7 SE 12 13 - - 0.0 - - - - - - -
18/02:30pm 15.9 SSE 12 15 - - 0.0 - - - - - - -
18/02:00pm 15.9 SSE 15 17 - - 0.0 - - - - - - -
18/01:30pm 15.9 SSE 15 18 - - 0.0 - - - - - - -
18/01:00pm 16.1 SSE 15 19 - - 0.0 - Partly cloudy - - - - -
18/12:30pm 16.1 SSE 14 18 - - 0.0 - - - - - - -
18/12:00pm 16.6 SSE 12 17 - - 0.0 - - - - - - -

Other Formats:

Comma delimited format used in spreadsheet applications
http://www.bom.gov.au/fwo/IDN60701/IDN60701.94749.axf

JavaScript Object Notation format (JSON) in row-major order
http://www.bom.gov.au/fwo/IDN60701/IDN60701.94749.json